sensor_id;sensor_type;location;lat;lon;timestamp;P1;durP1;ratioP1;P2;durP2;ratioP2
23747;SDS011;12054;53.662;10.126;2022-11-15T00:00:51;43.42;;;21.60;;
23747;SDS011;12054;53.662;10.126;2022-11-15T00:03:18;36.80;;;21.05;;
23747;SDS011;12054;53.662;10.126;2022-11-15T00:05:49;42.45;;;21.42;;
23747;SDS011;12054;53.662;10.126;2022-11-15T00:11:23;42.58;;;21.55;;
23747;SDS011;12054;53.662;10.126;2022-11-15T00:13:48;40.75;;;22.20;;
23747;SDS011;12054;53.662;10.126;2022-11-15T00:16:14;40.08;;;21.15;;
23747;SDS011;12054;53.662;10.126;2022-11-15T00:18:40;39.63;;;20.60;;
23747;SDS011;12054;53.662;10.126;2022-11-15T00:21:06;41.92;;;21.63;;
23747;SDS011;12054;53.662;10.126;2022-11-15T00:23:34;40.13;;;21.60;;
23747;SDS011;12054;53.662;10.126;2022-11-15T00:28:53;40.88;;;21.38;;
23747;SDS011;12054;53.662;10.126;2022-11-15T00:31:19;36.85;;;19.98;;
23747;SDS011;12054;53.662;10.126;2022-11-15T00:33:48;41.70;;;22.08;;
23747;SDS011;12054;53.662;10.126;2022-11-15T00:36:14;40.80;;;21.10;;
23747;SDS011;12054;53.662;10.126;2022-11-15T00:38:40;40.67;;;20.70;;
23747;SDS011;12054;53.662;10.126;2022-11-15T00:41:06;39.60;;;20.98;;
23747;SDS011;12054;53.662;10.126;2022-11-15T00:43:45;39.38;;;21.05;;
23747;SDS011;12054;53.662;10.126;2022-11-15T00:46:10;38.40;;;20.65;;
23747;SDS011;12054;53.662;10.126;2022-11-15T00:48:36;40.38;;;19.98;;
23747;SDS011;12054;53.662;10.126;2022-11-15T00:51:02;40.05;;;21.05;;
23747;SDS011;12054;53.662;10.126;2022-11-15T00:53:37;37.58;;;20.83;;
23747;SDS011;12054;53.662;10.126;2022-11-15T00:56:03;37.47;;;20.70;;
23747;SDS011;12054;53.662;10.126;2022-11-15T00:58:29;36.13;;;20.15;;
23747;SDS011;12054;53.662;10.126;2022-11-15T01:04:11;35.15;;;19.15;;
23747;SDS011;12054;53.662;10.126;2022-11-15T01:06:36;39.53;;;20.15;;
23747;SDS011;12054;53.662;10.126;2022-11-15T01:09:08;38.50;;;20.73;;
23747;SDS011;12054;53.662;10.126;2022-11-15T01:11:33;37.75;;;19.83;;
23747;SDS011;12054;53.662;10.126;2022-11-15T01:13:59;36.05;;;19.73;;
23747;SDS011;12054;53.662;10.126;2022-11-15T01:16:24;39.20;;;20.48;;
23747;SDS011;12054;53.662;10.126;2022-11-15T01:18:50;37.90;;;20.17;;
23747;SDS011;12054;53.662;10.126;2022-11-15T01:21:17;39.45;;;21.10;;
23747;SDS011;12054;53.662;10.126;2022-11-15T01:23:44;36.97;;;20.05;;
23747;SDS011;12054;53.662;10.126;2022-11-15T01:26:12;38.35;;;20.35;;
23747;SDS011;12054;53.662;10.126;2022-11-15T01:28:40;38.28;;;20.80;;
23747;SDS011;12054;53.662;10.126;2022-11-15T01:31:09;37.08;;;21.50;;
23747;SDS011;12054;53.662;10.126;2022-11-15T01:33:38;37.58;;;20.08;;
23747;SDS011;12054;53.662;10.126;2022-11-15T01:36:04;38.60;;;20.30;;
23747;SDS011;12054;53.662;10.126;2022-11-15T01:38:31;39.88;;;20.55;;
23747;SDS011;12054;53.662;10.126;2022-11-15T01:40:57;37.83;;;20.52;;
23747;SDS011;12054;53.662;10.126;2022-11-15T01:43:23;38.25;;;20.50;;
23747;SDS011;12054;53.662;10.126;2022-11-15T01:46:36;37.90;;;20.25;;
23747;SDS011;12054;53.662;10.126;2022-11-15T01:48:48;36.17;;;19.50;;
23747;SDS011;12054;53.662;10.126;2022-11-15T01:51:16;35.83;;;19.75;;
23747;SDS011;12054;53.662;10.126;2022-11-15T01:53:44;36.67;;;19.63;;
23747;SDS011;12054;53.662;10.126;2022-11-15T01:56:13;36.00;;;20.35;;
23747;SDS011;12054;53.662;10.126;2022-11-15T01:58:42;33.47;;;18.80;;
23747;SDS011;12054;53.662;10.126;2022-11-15T02:01:10;37.80;;;19.58;;
23747;SDS011;12054;53.662;10.126;2022-11-15T02:06:14;37.65;;;20.05;;
23747;SDS011;12054;53.662;10.126;2022-11-15T02:08:40;36.75;;;20.05;;
23747;SDS011;12054;53.662;10.126;2022-11-15T02:11:09;37.00;;;19.90;;
23747;SDS011;12054;53.662;10.126;2022-11-15T02:13:36;38.10;;;20.65;;
23747;SDS011;12054;53.662;10.126;2022-11-15T02:24:56;33.53;;;18.63;;
23747;SDS011;12054;53.662;10.126;2022-11-15T02:27:53;36.40;;;18.88;;
23747;SDS011;12054;53.662;10.126;2022-11-15T02:30:33;33.45;;;18.48;;
23747;SDS011;12054;53.662;10.126;2022-11-15T02:33:05;36.95;;;19.08;;
23747;SDS011;12054;53.662;10.126;2022-11-15T02:38:34;36.35;;;19.60;;
23747;SDS011;12054;53.662;10.126;2022-11-15T02:41:40;35.45;;;18.85;;
23747;SDS011;12054;53.662;10.126;2022-11-15T02:44:31;31.92;;;18.17;;
23747;SDS011;12054;53.662;10.126;2022-11-15T02:47:04;39.17;;;20.30;;
23747;SDS011;12054;53.662;10.126;2022-11-15T02:49:53;35.03;;;19.30;;
23747;SDS011;12054;53.662;10.126;2022-11-15T02:52:23;32.63;;;18.00;;
23747;SDS011;12054;53.662;10.126;2022-11-15T02:54:56;32.80;;;18.00;;
23747;SDS011;12054;53.662;10.126;2022-11-15T02:57:30;32.97;;;18.40;;
23747;SDS011;12054;53.662;10.126;2022-11-15T03:00:18;38.00;;;18.95;;
23747;SDS011;12054;53.662;10.126;2022-11-15T03:02:53;33.03;;;17.58;;
23747;SDS011;12054;53.662;10.126;2022-11-15T03:08:05;29.92;;;17.70;;
23747;SDS011;12054;53.662;10.126;2022-11-15T03:13:27;34.58;;;18.05;;
23747;SDS011;12054;53.662;10.126;2022-11-15T03:16:15;30.48;;;17.40;;
23747;SDS011;12054;53.662;10.126;2022-11-15T03:18:50;31.60;;;17.35;;
23747;SDS011;12054;53.662;10.126;2022-11-15T03:21:27;31.98;;;18.33;;
23747;SDS011;12054;53.662;10.126;2022-11-15T03:23:54;32.00;;;18.02;;
23747;SDS011;12054;53.662;10.126;2022-11-15T03:26:23;34.10;;;18.58;;
23747;SDS011;12054;53.662;10.126;2022-11-15T03:28:51;31.35;;;17.95;;
23747;SDS011;12054;53.662;10.126;2022-11-15T03:31:20;30.63;;;17.13;;
23747;SDS011;12054;53.662;10.126;2022-11-15T03:34:06;33.75;;;17.63;;
23747;SDS011;12054;53.662;10.126;2022-11-15T03:36:35;31.20;;;17.48;;
23747;SDS011;12054;53.662;10.126;2022-11-15T03:39:18;31.55;;;17.85;;
23747;SDS011;12054;53.662;10.126;2022-11-15T03:41:49;32.90;;;18.30;;
23747;SDS011;12054;53.662;10.126;2022-11-15T03:44:46;33.80;;;17.73;;
23747;SDS011;12054;53.662;10.126;2022-11-15T03:49:53;31.75;;;17.10;;
23747;SDS011;12054;53.662;10.126;2022-11-15T03:52:24;33.25;;;17.85;;
23747;SDS011;12054;53.662;10.126;2022-11-15T03:55:03;30.05;;;17.55;;
23747;SDS011;12054;53.662;10.126;2022-11-15T03:57:30;31.48;;;16.80;;
23747;SDS011;12054;53.662;10.126;2022-11-15T03:59:56;29.63;;;16.40;;
23747;SDS011;12054;53.662;10.126;2022-11-15T04:02:26;29.20;;;16.25;;
23747;SDS011;12054;53.662;10.126;2022-11-15T04:04:53;25.25;;;15.02;;
23747;SDS011;12054;53.662;10.126;2022-11-15T04:07:19;29.20;;;15.68;;
23747;SDS011;12054;53.662;10.126;2022-11-15T04:09:44;27.73;;;15.75;;
23747;SDS011;12054;53.662;10.126;2022-11-15T04:12:39;29.50;;;16.75;;
23747;SDS011;12054;53.662;10.126;2022-11-15T04:15:10;27.98;;;16.08;;
23747;SDS011;12054;53.662;10.126;2022-11-15T04:17:41;30.13;;;16.40;;
23747;SDS011;12054;53.662;10.126;2022-11-15T04:20:28;26.98;;;15.45;;
23747;SDS011;12054;53.662;10.126;2022-11-15T04:23:14;26.52;;;14.82;;
23747;SDS011;12054;53.662;10.126;2022-11-15T04:26:00;26.33;;;14.73;;
23747;SDS011;12054;53.662;10.126;2022-11-15T04:28:27;27.88;;;15.50;;
23747;SDS011;12054;53.662;10.126;2022-11-15T04:30:53;30.13;;;15.20;;
23747;SDS011;12054;53.662;10.126;2022-11-15T04:33:19;26.17;;;14.57;;
23747;SDS011;12054;53.662;10.126;2022-11-15T04:35:44;27.17;;;15.45;;
23747;SDS011;12054;53.662;10.126;2022-11-15T04:38:30;26.90;;;15.45;;
23747;SDS011;12054;53.662;10.126;2022-11-15T04:40:56;27.80;;;15.68;;
23747;SDS011;12054;53.662;10.126;2022-11-15T04:43:21;26.83;;;15.60;;
23747;SDS011;12054;53.662;10.126;2022-11-15T04:45:47;28.10;;;15.40;;
23747;SDS011;12054;53.662;10.126;2022-11-15T04:50:44;27.83;;;15.48;;
23747;SDS011;12054;53.662;10.126;2022-11-15T04:53:09;24.33;;;14.90;;
23747;SDS011;12054;53.662;10.126;2022-11-15T04:55:35;25.13;;;14.32;;
23747;SDS011;12054;53.662;10.126;2022-11-15T04:58:01;29.75;;;14.57;;
23747;SDS011;12054;53.662;10.126;2022-11-15T05:00:27;23.15;;;12.85;;
23747;SDS011;12054;53.662;10.126;2022-11-15T05:02:54;22.90;;;13.45;;
23747;SDS011;12054;53.662;10.126;2022-11-15T05:05:38;23.38;;;12.95;;
23747;SDS011;12054;53.662;10.126;2022-11-15T05:08:05;22.92;;;13.05;;
23747;SDS011;12054;53.662;10.126;2022-11-15T05:10:31;26.40;;;14.85;;
23747;SDS011;12054;53.662;10.126;2022-11-15T05:12:57;23.92;;;14.00;;
23747;SDS011;12054;53.662;10.126;2022-11-15T05:15:22;24.88;;;13.70;;
23747;SDS011;12054;53.662;10.126;2022-11-15T05:17:48;26.05;;;14.88;;
23747;SDS011;12054;53.662;10.126;2022-11-15T05:20:13;25.67;;;14.32;;
23747;SDS011;12054;53.662;10.126;2022-11-15T05:22:39;24.05;;;13.90;;
23747;SDS011;12054;53.662;10.126;2022-11-15T05:25:04;27.00;;;14.73;;
23747;SDS011;12054;53.662;10.126;2022-11-15T05:27:42;27.35;;;15.52;;
23747;SDS011;12054;53.662;10.126;2022-11-15T05:30:07;26.67;;;15.13;;
23747;SDS011;12054;53.662;10.126;2022-11-15T05:32:33;31.02;;;16.33;;
23747;SDS011;12054;53.662;10.126;2022-11-15T05:34:59;28.58;;;16.00;;
23747;SDS011;12054;53.662;10.126;2022-11-15T05:37:24;33.50;;;17.20;;
23747;SDS011;12054;53.662;10.126;2022-11-15T05:39:50;29.20;;;15.38;;
23747;SDS011;12054;53.662;10.126;2022-11-15T05:42:15;30.50;;;16.58;;
23747;SDS011;12054;53.662;10.126;2022-11-15T05:44:43;31.08;;;16.58;;
23747;SDS011;12054;53.662;10.126;2022-11-15T05:47:17;31.90;;;16.15;;
23747;SDS011;12054;53.662;10.126;2022-11-15T05:49:48;31.92;;;16.38;;
23747;SDS011;12054;53.662;10.126;2022-11-15T05:52:17;31.10;;;16.92;;
23747;SDS011;12054;53.662;10.126;2022-11-15T05:54:45;31.45;;;16.30;;
23747;SDS011;12054;53.662;10.126;2022-11-15T05:57:11;32.20;;;18.10;;
23747;SDS011;12054;53.662;10.126;2022-11-15T05:59:36;31.67;;;17.35;;
23747;SDS011;12054;53.662;10.126;2022-11-15T06:02:03;33.38;;;17.85;;
23747;SDS011;12054;53.662;10.126;2022-11-15T06:04:28;34.72;;;18.30;;
23747;SDS011;12054;53.662;10.126;2022-11-15T06:06:54;36.22;;;18.23;;
23747;SDS011;12054;53.662;10.126;2022-11-15T06:09:19;31.90;;;17.05;;
23747;SDS011;12054;53.662;10.126;2022-11-15T06:11:45;29.88;;;17.45;;
23747;SDS011;12054;53.662;10.126;2022-11-15T06:14:10;35.00;;;17.23;;
23747;SDS011;12054;53.662;10.126;2022-11-15T06:16:36;35.47;;;18.75;;
23747;SDS011;12054;53.662;10.126;2022-11-15T06:19:01;32.30;;;17.38;;
23747;SDS011;12054;53.662;10.126;2022-11-15T06:21:27;35.42;;;17.60;;
23747;SDS011;12054;53.662;10.126;2022-11-15T06:23:55;33.60;;;16.90;;
23747;SDS011;12054;53.662;10.126;2022-11-15T06:26:21;34.50;;;18.50;;
23747;SDS011;12054;53.662;10.126;2022-11-15T06:28:47;33.05;;;18.13;;
23747;SDS011;12054;53.662;10.126;2022-11-15T06:31:12;34.10;;;18.95;;
23747;SDS011;12054;53.662;10.126;2022-11-15T06:33:38;34.55;;;17.85;;
23747;SDS011;12054;53.662;10.126;2022-11-15T06:36:06;32.13;;;18.33;;
23747;SDS011;12054;53.662;10.126;2022-11-15T06:38:33;31.77;;;17.13;;
23747;SDS011;12054;53.662;10.126;2022-11-15T06:41:03;33.38;;;17.88;;
23747;SDS011;12054;53.662;10.126;2022-11-15T06:43:29;32.08;;;17.38;;
23747;SDS011;12054;53.662;10.126;2022-11-15T06:45:55;30.77;;;17.88;;
23747;SDS011;12054;53.662;10.126;2022-11-15T06:48:23;32.70;;;17.55;;
23747;SDS011;12054;53.662;10.126;2022-11-15T06:50:52;31.52;;;17.20;;
23747;SDS011;12054;53.662;10.126;2022-11-15T06:53:18;32.10;;;17.05;;
23747;SDS011;12054;53.662;10.126;2022-11-15T06:55:46;32.55;;;17.60;;
23747;SDS011;12054;53.662;10.126;2022-11-15T06:58:11;34.10;;;17.92;;
23747;SDS011;12054;53.662;10.126;2022-11-15T07:00:37;35.42;;;17.77;;
23747;SDS011;12054;53.662;10.126;2022-11-15T07:03:02;35.35;;;18.27;;
23747;SDS011;12054;53.662;10.126;2022-11-15T07:05:28;33.00;;;18.17;;
23747;SDS011;12054;53.662;10.126;2022-11-15T07:07:54;30.60;;;17.08;;
23747;SDS011;12054;53.662;10.126;2022-11-15T07:10:21;30.40;;;17.90;;
23747;SDS011;12054;53.662;10.126;2022-11-15T07:12:49;32.60;;;17.67;;
23747;SDS011;12054;53.662;10.126;2022-11-15T07:15:16;32.30;;;17.90;;
23747;SDS011;12054;53.662;10.126;2022-11-15T07:17:43;33.53;;;18.25;;
23747;SDS011;12054;53.662;10.126;2022-11-15T07:20:09;33.22;;;18.13;;
23747;SDS011;12054;53.662;10.126;2022-11-15T07:22:35;32.15;;;17.88;;
23747;SDS011;12054;53.662;10.126;2022-11-15T07:25:03;36.05;;;17.30;;
23747;SDS011;12054;53.662;10.126;2022-11-15T07:27:29;32.97;;;17.67;;
23747;SDS011;12054;53.662;10.126;2022-11-15T07:29:54;29.67;;;15.93;;
23747;SDS011;12054;53.662;10.126;2022-11-15T07:32:31;31.20;;;17.15;;
23747;SDS011;12054;53.662;10.126;2022-11-15T07:34:56;31.67;;;16.88;;
23747;SDS011;12054;53.662;10.126;2022-11-15T07:37:22;33.33;;;16.73;;
23747;SDS011;12054;53.662;10.126;2022-11-15T07:39:47;31.95;;;16.55;;
23747;SDS011;12054;53.662;10.126;2022-11-15T07:42:13;34.40;;;17.73;;
23747;SDS011;12054;53.662;10.126;2022-11-15T07:44:57;29.92;;;17.00;;
23747;SDS011;12054;53.662;10.126;2022-11-15T07:47:22;30.55;;;16.73;;
23747;SDS011;12054;53.662;10.126;2022-11-15T07:49:48;34.08;;;18.45;;
23747;SDS011;12054;53.662;10.126;2022-11-15T07:52:14;30.17;;;16.60;;
23747;SDS011;12054;53.662;10.126;2022-11-15T07:54:40;29.70;;;16.48;;
23747;SDS011;12054;53.662;10.126;2022-11-15T07:57:05;29.13;;;15.45;;
23747;SDS011;12054;53.662;10.126;2022-11-15T07:59:32;31.77;;;15.45;;
23747;SDS011;12054;53.662;10.126;2022-11-15T08:01:57;30.38;;;16.35;;
23747;SDS011;12054;53.662;10.126;2022-11-15T08:04:23;34.45;;;17.02;;
23747;SDS011;12054;53.662;10.126;2022-11-15T08:06:48;30.83;;;17.08;;
23747;SDS011;12054;53.662;10.126;2022-11-15T08:09:14;29.63;;;15.55;;
23747;SDS011;12054;53.662;10.126;2022-11-15T08:11:39;30.10;;;16.42;;
23747;SDS011;12054;53.662;10.126;2022-11-15T08:14:05;37.35;;;17.17;;
23747;SDS011;12054;53.662;10.126;2022-11-15T08:16:30;33.47;;;16.95;;
23747;SDS011;12054;53.662;10.126;2022-11-15T08:18:56;29.58;;;17.35;;
23747;SDS011;12054;53.662;10.126;2022-11-15T08:21:22;26.65;;;16.60;;
23747;SDS011;12054;53.662;10.126;2022-11-15T08:23:47;30.73;;;16.63;;
23747;SDS011;12054;53.662;10.126;2022-11-15T08:26:13;31.00;;;17.27;;
23747;SDS011;12054;53.662;10.126;2022-11-15T08:28:39;29.13;;;16.65;;
23747;SDS011;12054;53.662;10.126;2022-11-15T08:31:05;30.50;;;16.88;;
23747;SDS011;12054;53.662;10.126;2022-11-15T08:33:31;30.65;;;16.88;;
23747;SDS011;12054;53.662;10.126;2022-11-15T08:35:58;30.08;;;17.80;;
23747;SDS011;12054;53.662;10.126;2022-11-15T08:38:25;28.00;;;15.15;;
23747;SDS011;12054;53.662;10.126;2022-11-15T08:40:53;26.75;;;15.82;;
23747;SDS011;12054;53.662;10.126;2022-11-15T08:43:27;28.52;;;15.80;;
23747;SDS011;12054;53.662;10.126;2022-11-15T08:45:55;29.25;;;16.27;;
23747;SDS011;12054;53.662;10.126;2022-11-15T08:48:21;29.98;;;16.85;;
23747;SDS011;12054;53.662;10.126;2022-11-15T08:50:47;29.73;;;16.52;;
23747;SDS011;12054;53.662;10.126;2022-11-15T08:53:13;26.45;;;14.93;;
23747;SDS011;12054;53.662;10.126;2022-11-15T08:55:38;27.88;;;15.63;;
23747;SDS011;12054;53.662;10.126;2022-11-15T08:58:05;29.77;;;15.48;;
23747;SDS011;12054;53.662;10.126;2022-11-15T09:00:30;30.88;;;16.35;;
23747;SDS011;12054;53.662;10.126;2022-11-15T09:02:56;25.48;;;15.00;;
23747;SDS011;12054;53.662;10.126;2022-11-15T09:05:21;27.70;;;16.73;;
23747;SDS011;12054;53.662;10.126;2022-11-15T09:07:47;26.90;;;15.65;;
23747;SDS011;12054;53.662;10.126;2022-11-15T09:10:17;26.50;;;15.57;;
23747;SDS011;12054;53.662;10.126;2022-11-15T09:12:42;27.58;;;14.82;;
23747;SDS011;12054;53.662;10.126;2022-11-15T09:15:08;27.30;;;15.52;;
23747;SDS011;12054;53.662;10.126;2022-11-15T09:17:34;25.30;;;15.73;;
23747;SDS011;12054;53.662;10.126;2022-11-15T09:19:59;27.15;;;15.32;;
23747;SDS011;12054;53.662;10.126;2022-11-15T09:22:25;24.63;;;15.38;;
23747;SDS011;12054;53.662;10.126;2022-11-15T09:24:51;25.35;;;14.15;;
23747;SDS011;12054;53.662;10.126;2022-11-15T09:27:17;27.92;;;16.25;;
23747;SDS011;12054;53.662;10.126;2022-11-15T09:29:42;31.13;;;16.85;;
23747;SDS011;12054;53.662;10.126;2022-11-15T09:32:08;24.58;;;14.80;;
23747;SDS011;12054;53.662;10.126;2022-11-15T09:34:34;28.70;;;16.02;;
23747;SDS011;12054;53.662;10.126;2022-11-15T09:37:00;27.20;;;14.95;;
23747;SDS011;12054;53.662;10.126;2022-11-15T09:39:25;22.25;;;13.82;;
23747;SDS011;12054;53.662;10.126;2022-11-15T09:41:55;26.08;;;15.63;;
23747;SDS011;12054;53.662;10.126;2022-11-15T09:45:18;27.42;;;15.48;;
23747;SDS011;12054;53.662;10.126;2022-11-15T09:50:12;24.25;;;14.95;;
23747;SDS011;12054;53.662;10.126;2022-11-15T09:52:53;24.95;;;14.45;;
23747;SDS011;12054;53.662;10.126;2022-11-15T09:55:20;24.42;;;14.18;;
23747;SDS011;12054;53.662;10.126;2022-11-15T09:58:03;24.98;;;14.45;;
23747;SDS011;12054;53.662;10.126;2022-11-15T10:00:42;23.83;;;14.55;;
23747;SDS011;12054;53.662;10.126;2022-11-15T10:03:26;25.48;;;14.93;;
23747;SDS011;12054;53.662;10.126;2022-11-15T10:05:57;25.55;;;13.90;;
23747;SDS011;12054;53.662;10.126;2022-11-15T10:08:27;24.38;;;14.50;;
23747;SDS011;12054;53.662;10.126;2022-11-15T10:11:17;24.38;;;14.93;;
23747;SDS011;12054;53.662;10.126;2022-11-15T10:13:51;24.25;;;13.68;;
23747;SDS011;12054;53.662;10.126;2022-11-15T10:21:24;20.08;;;13.05;;
23747;SDS011;12054;53.662;10.126;2022-11-15T10:24:15;21.13;;;13.13;;
23747;SDS011;12054;53.662;10.126;2022-11-15T10:26:46;21.52;;;13.48;;
23747;SDS011;12054;53.662;10.126;2022-11-15T10:29:17;19.73;;;12.18;;
23747;SDS011;12054;53.662;10.126;2022-11-15T10:31:46;22.17;;;12.88;;
23747;SDS011;12054;53.662;10.126;2022-11-15T10:34:14;24.92;;;13.40;;
23747;SDS011;12054;53.662;10.126;2022-11-15T10:36:54;21.42;;;12.77;;
23747;SDS011;12054;53.662;10.126;2022-11-15T10:39:20;22.02;;;12.95;;
23747;SDS011;12054;53.662;10.126;2022-11-15T10:41:45;20.73;;;12.75;;
23747;SDS011;12054;53.662;10.126;2022-11-15T10:47:03;24.40;;;13.02;;
23747;SDS011;12054;53.662;10.126;2022-11-15T10:49:32;19.65;;;12.07;;
23747;SDS011;12054;53.662;10.126;2022-11-15T10:52:15;21.17;;;12.63;;
23747;SDS011;12054;53.662;10.126;2022-11-15T10:54:50;20.35;;;12.40;;
23747;SDS011;12054;53.662;10.126;2022-11-15T10:57:50;20.27;;;12.30;;
23747;SDS011;12054;53.662;10.126;2022-11-15T11:03:29;17.08;;;11.23;;
23747;SDS011;12054;53.662;10.126;2022-11-15T11:06:04;17.75;;;12.32;;
23747;SDS011;12054;53.662;10.126;2022-11-15T11:08:30;20.17;;;11.93;;
23747;SDS011;12054;53.662;10.126;2022-11-15T11:10:57;18.95;;;12.25;;
23747;SDS011;12054;53.662;10.126;2022-11-15T11:13:25;18.83;;;12.27;;
23747;SDS011;12054;53.662;10.126;2022-11-15T11:15:55;18.60;;;11.35;;
23747;SDS011;12054;53.662;10.126;2022-11-15T11:18:59;17.65;;;11.23;;
23747;SDS011;12054;53.662;10.126;2022-11-15T11:21:41;20.48;;;11.15;;
23747;SDS011;12054;53.662;10.126;2022-11-15T11:24:36;16.15;;;10.65;;
23747;SDS011;12054;53.662;10.126;2022-11-15T11:30:17;18.20;;;10.75;;
23747;SDS011;12054;53.662;10.126;2022-11-15T11:36:08;16.05;;;10.95;;
23747;SDS011;12054;53.662;10.126;2022-11-15T11:38:39;18.13;;;12.30;;
23747;SDS011;12054;53.662;10.126;2022-11-15T11:41:38;19.92;;;12.00;;
23747;SDS011;12054;53.662;10.126;2022-11-15T11:47:01;18.52;;;11.88;;
23747;SDS011;12054;53.662;10.126;2022-11-15T11:49:37;20.58;;;11.02;;
23747;SDS011;12054;53.662;10.126;2022-11-15T11:55:05;19.65;;;12.07;;
23747;SDS011;12054;53.662;10.126;2022-11-15T12:02:41;18.95;;;11.88;;
23747;SDS011;12054;53.662;10.126;2022-11-15T12:05:11;17.63;;;11.93;;
23747;SDS011;12054;53.662;10.126;2022-11-15T12:07:44;18.48;;;11.82;;
23747;SDS011;12054;53.662;10.126;2022-11-15T12:10:22;19.30;;;12.32;;
23747;SDS011;12054;53.662;10.126;2022-11-15T12:15:45;17.20;;;11.10;;
23747;SDS011;12054;53.662;10.126;2022-11-15T12:18:18;17.38;;;11.23;;
23747;SDS011;12054;53.662;10.126;2022-11-15T12:20:50;17.63;;;11.40;;
23747;SDS011;12054;53.662;10.126;2022-11-15T12:23:25;16.75;;;10.32;;
23747;SDS011;12054;53.662;10.126;2022-11-15T12:26:02;17.60;;;10.98;;
23747;SDS011;12054;53.662;10.126;2022-11-15T12:28:48;17.98;;;10.43;;
23747;SDS011;12054;53.662;10.126;2022-11-15T12:31:30;16.75;;;10.32;;
23747;SDS011;12054;53.662;10.126;2022-11-15T12:34:03;16.70;;;10.93;;
23747;SDS011;12054;53.662;10.126;2022-11-15T12:36:45;18.95;;;10.27;;
23747;SDS011;12054;53.662;10.126;2022-11-15T12:39:12;18.83;;;10.80;;
23747;SDS011;12054;53.662;10.126;2022-11-15T12:41:40;14.68;;;9.70;;
23747;SDS011;12054;53.662;10.126;2022-11-15T12:46:59;15.70;;;10.60;;
23747;SDS011;12054;53.662;10.126;2022-11-15T13:17:38;14.32;;;9.70;;
23747;SDS011;12054;53.662;10.126;2022-11-15T13:22:47;13.50;;;9.15;;
23747;SDS011;12054;53.662;10.126;2022-11-15T13:28:31;14.45;;;8.90;;
23747;SDS011;12054;53.662;10.126;2022-11-15T13:34:01;14.73;;;9.45;;
23747;SDS011;12054;53.662;10.126;2022-11-15T13:36:38;14.85;;;9.93;;
23747;SDS011;12054;53.662;10.126;2022-11-15T13:39:05;16.23;;;10.20;;
23747;SDS011;12054;53.662;10.126;2022-11-15T13:41:47;12.82;;;8.70;;
23747;SDS011;12054;53.662;10.126;2022-11-15T13:44:25;15.40;;;10.15;;
23747;SDS011;12054;53.662;10.126;2022-11-15T13:47:06;16.13;;;9.68;;
23747;SDS011;12054;53.662;10.126;2022-11-15T13:49:38;15.23;;;9.68;;
23747;SDS011;12054;53.662;10.126;2022-11-15T13:52:05;15.95;;;10.38;;
23747;SDS011;12054;53.662;10.126;2022-11-15T13:54:38;15.27;;;9.98;;
23747;SDS011;12054;53.662;10.126;2022-11-15T13:59:54;16.48;;;10.23;;
23747;SDS011;12054;53.662;10.126;2022-11-15T14:02:26;15.30;;;9.23;;
23747;SDS011;12054;53.662;10.126;2022-11-15T14:04:59;14.23;;;9.20;;
23747;SDS011;12054;53.662;10.126;2022-11-15T14:07:29;13.73;;;9.57;;
23747;SDS011;12054;53.662;10.126;2022-11-15T14:09:55;16.35;;;10.35;;
23747;SDS011;12054;53.662;10.126;2022-11-15T14:12:25;16.15;;;10.32;;
23747;SDS011;12054;53.662;10.126;2022-11-15T14:14:55;16.33;;;10.18;;
23747;SDS011;12054;53.662;10.126;2022-11-15T14:19:59;16.27;;;9.98;;
23747;SDS011;12054;53.662;10.126;2022-11-15T14:22:25;14.65;;;9.75;;
23747;SDS011;12054;53.662;10.126;2022-11-15T14:27:37;14.13;;;9.30;;
23747;SDS011;12054;53.662;10.126;2022-11-15T14:30:04;14.57;;;9.73;;
23747;SDS011;12054;53.662;10.126;2022-11-15T14:32:37;15.15;;;9.90;;
23747;SDS011;12054;53.662;10.126;2022-11-15T14:35:12;14.82;;;9.88;;
23747;SDS011;12054;53.662;10.126;2022-11-15T14:37:41;14.77;;;9.70;;
23747;SDS011;12054;53.662;10.126;2022-11-15T14:40:08;16.85;;;9.82;;
23747;SDS011;12054;53.662;10.126;2022-11-15T14:42:41;16.00;;;9.50;;
23747;SDS011;12054;53.662;10.126;2022-11-15T14:45:10;16.10;;;10.07;;
23747;SDS011;12054;53.662;10.126;2022-11-15T14:47:38;14.63;;;9.57;;
23747;SDS011;12054;53.662;10.126;2022-11-15T14:50:04;15.30;;;9.50;;
23747;SDS011;12054;53.662;10.126;2022-11-15T14:52:30;16.15;;;9.35;;
23747;SDS011;12054;53.662;10.126;2022-11-15T14:54:59;14.55;;;9.57;;
23747;SDS011;12054;53.662;10.126;2022-11-15T14:57:27;15.20;;;10.23;;
23747;SDS011;12054;53.662;10.126;2022-11-15T14:59:53;13.50;;;9.80;;
23747;SDS011;12054;53.662;10.126;2022-11-15T15:02:19;16.20;;;9.68;;
23747;SDS011;12054;53.662;10.126;2022-11-15T15:04:47;13.27;;;9.52;;
23747;SDS011;12054;53.662;10.126;2022-11-15T15:07:13;14.63;;;9.88;;
23747;SDS011;12054;53.662;10.126;2022-11-15T15:09:39;17.67;;;11.68;;
23747;SDS011;12054;53.662;10.126;2022-11-15T15:12:08;14.18;;;9.98;;
23747;SDS011;12054;53.662;10.126;2022-11-15T15:14:42;18.60;;;11.05;;
23747;SDS011;12054;53.662;10.126;2022-11-15T15:17:08;16.75;;;11.20;;
23747;SDS011;12054;53.662;10.126;2022-11-15T15:19:33;16.92;;;11.73;;
23747;SDS011;12054;53.662;10.126;2022-11-15T15:21:59;14.88;;;9.85;;
23747;SDS011;12054;53.662;10.126;2022-11-15T15:24:24;14.75;;;9.65;;
23747;SDS011;12054;53.662;10.126;2022-11-15T15:26:49;15.85;;;9.93;;
23747;SDS011;12054;53.662;10.126;2022-11-15T15:29:15;14.15;;;9.05;;
23747;SDS011;12054;53.662;10.126;2022-11-15T15:31:40;14.48;;;9.57;;
23747;SDS011;12054;53.662;10.126;2022-11-15T15:34:06;13.90;;;9.15;;
23747;SDS011;12054;53.662;10.126;2022-11-15T15:36:31;14.10;;;9.68;;
23747;SDS011;12054;53.662;10.126;2022-11-15T15:38:57;15.15;;;9.88;;
23747;SDS011;12054;53.662;10.126;2022-11-15T15:41:22;13.70;;;9.85;;
23747;SDS011;12054;53.662;10.126;2022-11-15T15:43:48;14.23;;;9.43;;
23747;SDS011;12054;53.662;10.126;2022-11-15T15:46:14;14.20;;;9.82;;
23747;SDS011;12054;53.662;10.126;2022-11-15T15:48:41;13.30;;;9.45;;
23747;SDS011;12054;53.662;10.126;2022-11-15T15:51:08;14.88;;;9.55;;
23747;SDS011;12054;53.662;10.126;2022-11-15T15:53:33;14.02;;;8.85;;
23747;SDS011;12054;53.662;10.126;2022-11-15T15:55:59;14.68;;;9.65;;
23747;SDS011;12054;53.662;10.126;2022-11-15T15:58:25;14.55;;;8.95;;
23747;SDS011;12054;53.662;10.126;2022-11-15T16:00:51;13.70;;;9.23;;
23747;SDS011;12054;53.662;10.126;2022-11-15T16:03:16;15.10;;;8.77;;
23747;SDS011;12054;53.662;10.126;2022-11-15T16:05:42;13.30;;;9.07;;
23747;SDS011;12054;53.662;10.126;2022-11-15T16:08:18;14.40;;;9.25;;
23747;SDS011;12054;53.662;10.126;2022-11-15T16:10:44;13.85;;;9.18;;
23747;SDS011;12054;53.662;10.126;2022-11-15T16:13:10;13.90;;;8.60;;
23747;SDS011;12054;53.662;10.126;2022-11-15T16:15:36;12.68;;;9.07;;
23747;SDS011;12054;53.662;10.126;2022-11-15T16:18:02;13.65;;;8.57;;
23747;SDS011;12054;53.662;10.126;2022-11-15T16:23:00;13.80;;;9.45;;
23747;SDS011;12054;53.662;10.126;2022-11-15T16:25:27;15.40;;;9.70;;